sensor_id;sensor_type;location;lat;lon;timestamp;P1;durP1;ratioP1;P2;durP2;ratioP2
81807;SDS011;71241;13.676;100.700;2023-08-20T00:01:13;14.15;;;7.65;;
81807;SDS011;71241;13.676;100.700;2023-08-20T00:03:45;10.35;;;6.55;;
81807;SDS011;71241;13.676;100.700;2023-08-20T00:06:17;10.52;;;6.65;;
81807;SDS011;71241;13.676;100.700;2023-08-20T00:08:49;10.02;;;6.90;;
81807;SDS011;71241;13.676;100.700;2023-08-20T00:11:21;7.18;;;6.47;;
81807;SDS011;71241;13.676;100.700;2023-08-20T00:13:52;11.75;;;7.18;;
81807;SDS011;71241;13.676;100.700;2023-08-20T00:16:29;9.57;;;6.82;;
81807;SDS011;71241;13.676;100.700;2023-08-20T00:19:00;15.52;;;7.07;;
81807;SDS011;71241;13.676;100.700;2023-08-20T00:24:58;12.60;;;6.63;;
81807;SDS011;71241;13.676;100.700;2023-08-20T00:27:31;11.00;;;7.22;;
81807;SDS011;71241;13.676;100.700;2023-08-20T00:30:02;10.40;;;6.85;;
81807;SDS011;71241;13.676;100.700;2023-08-20T00:32:33;12.43;;;7.28;;
81807;SDS011;71241;13.676;100.700;2023-08-20T00:35:04;13.77;;;6.65;;
81807;SDS011;71241;13.676;100.700;2023-08-20T00:37:36;13.18;;;7.00;;
81807;SDS011;71241;13.676;100.700;2023-08-20T00:40:07;11.20;;;6.60;;
81807;SDS011;71241;13.676;100.700;2023-08-20T00:42:41;10.85;;;9.70;;
81807;SDS011;71241;13.676;100.700;2023-08-20T00:45:11;15.80;;;7.82;;
81807;SDS011;71241;13.676;100.700;2023-08-20T00:47:42;11.95;;;10.85;;
81807;SDS011;71241;13.676;100.700;2023-08-20T00:50:13;13.05;;;10.48;;
81807;SDS011;71241;13.676;100.700;2023-08-20T00:52:43;14.00;;;6.80;;
81807;SDS011;71241;13.676;100.700;2023-08-20T00:55:15;12.10;;;7.93;;
81807;SDS011;71241;13.676;100.700;2023-08-20T00:57:47;13.85;;;6.72;;
81807;SDS011;71241;13.676;100.700;2023-08-20T01:00:18;11.98;;;6.78;;
81807;SDS011;71241;13.676;100.700;2023-08-20T01:02:48;9.27;;;7.20;;
81807;SDS011;71241;13.676;100.700;2023-08-20T01:05:20;13.55;;;7.35;;
81807;SDS011;71241;13.676;100.700;2023-08-20T01:08:05;11.23;;;8.18;;
81807;SDS011;71241;13.676;100.700;2023-08-20T01:11:00;13.80;;;8.63;;
81807;SDS011;71241;13.676;100.700;2023-08-20T01:13:35;10.73;;;7.65;;
81807;SDS011;71241;13.676;100.700;2023-08-20T01:16:06;11.60;;;6.80;;
81807;SDS011;71241;13.676;100.700;2023-08-20T01:18:36;15.60;;;7.32;;
81807;SDS011;71241;13.676;100.700;2023-08-20T01:21:10;14.63;;;7.95;;
81807;SDS011;71241;13.676;100.700;2023-08-20T01:23:58;11.77;;;8.10;;
81807;SDS011;71241;13.676;100.700;2023-08-20T01:26:46;11.90;;;7.25;;
81807;SDS011;71241;13.676;100.700;2023-08-20T01:29:23;10.60;;;8.30;;
81807;SDS011;71241;13.676;100.700;2023-08-20T01:31:55;10.65;;;7.57;;
81807;SDS011;71241;13.676;100.700;2023-08-20T01:34:26;12.73;;;7.72;;
81807;SDS011;71241;13.676;100.700;2023-08-20T01:36:56;13.70;;;6.30;;
81807;SDS011;71241;13.676;100.700;2023-08-20T01:39:27;13.23;;;7.82;;
81807;SDS011;71241;13.676;100.700;2023-08-20T01:41:57;13.88;;;6.70;;
81807;SDS011;71241;13.676;100.700;2023-08-20T01:44:30;14.00;;;6.60;;
81807;SDS011;71241;13.676;100.700;2023-08-20T01:47:00;9.43;;;6.78;;
81807;SDS011;71241;13.676;100.700;2023-08-20T01:49:31;11.18;;;8.40;;
81807;SDS011;71241;13.676;100.700;2023-08-20T01:52:01;15.35;;;9.80;;
81807;SDS011;71241;13.676;100.700;2023-08-20T01:54:32;9.93;;;8.90;;
81807;SDS011;71241;13.676;100.700;2023-08-20T01:57:03;12.25;;;8.52;;
81807;SDS011;71241;13.676;100.700;2023-08-20T01:59:36;11.95;;;6.80;;
81807;SDS011;71241;13.676;100.700;2023-08-20T02:02:06;13.45;;;6.47;;
81807;SDS011;71241;13.676;100.700;2023-08-20T02:04:37;10.98;;;7.60;;
81807;SDS011;71241;13.676;100.700;2023-08-20T02:07:08;10.30;;;6.47;;
81807;SDS011;71241;13.676;100.700;2023-08-20T02:09:38;14.25;;;7.30;;
81807;SDS011;71241;13.676;100.700;2023-08-20T02:12:09;11.07;;;5.47;;
81807;SDS011;71241;13.676;100.700;2023-08-20T02:14:41;12.15;;;6.75;;
81807;SDS011;71241;13.676;100.700;2023-08-20T02:17:12;10.63;;;7.32;;
81807;SDS011;71241;13.676;100.700;2023-08-20T02:19:43;10.77;;;7.07;;
81807;SDS011;71241;13.676;100.700;2023-08-20T02:22:14;10.75;;;7.55;;
81807;SDS011;71241;13.676;100.700;2023-08-20T02:24:44;12.45;;;8.35;;
81807;SDS011;71241;13.676;100.700;2023-08-20T02:27:15;14.32;;;8.55;;
81807;SDS011;71241;13.676;100.700;2023-08-20T02:29:47;11.88;;;7.57;;
81807;SDS011;71241;13.676;100.700;2023-08-20T02:32:18;11.20;;;7.50;;
81807;SDS011;71241;13.676;100.700;2023-08-20T02:34:49;11.93;;;7.97;;
81807;SDS011;71241;13.676;100.700;2023-08-20T02:37:20;12.45;;;7.95;;
81807;SDS011;71241;13.676;100.700;2023-08-20T02:39:50;10.50;;;7.43;;
81807;SDS011;71241;13.676;100.700;2023-08-20T02:42:21;11.52;;;7.43;;
81807;SDS011;71241;13.676;100.700;2023-08-20T02:44:53;10.02;;;7.32;;
81807;SDS011;71241;13.676;100.700;2023-08-20T02:47:24;12.65;;;8.07;;
81807;SDS011;71241;13.676;100.700;2023-08-20T02:49:54;10.98;;;8.02;;
81807;SDS011;71241;13.676;100.700;2023-08-20T02:52:25;13.88;;;8.68;;
81807;SDS011;71241;13.676;100.700;2023-08-20T02:54:55;11.25;;;8.45;;
81807;SDS011;71241;13.676;100.700;2023-08-20T02:57:26;12.63;;;7.00;;
81807;SDS011;71241;13.676;100.700;2023-08-20T02:59:58;12.05;;;6.68;;
81807;SDS011;71241;13.676;100.700;2023-08-20T03:02:29;13.50;;;7.75;;
81807;SDS011;71241;13.676;100.700;2023-08-20T03:04:59;14.07;;;7.38;;
81807;SDS011;71241;13.676;100.700;2023-08-20T03:07:30;12.60;;;7.07;;
81807;SDS011;71241;13.676;100.700;2023-08-20T03:10:01;12.90;;;8.07;;
81807;SDS011;71241;13.676;100.700;2023-08-20T03:12:32;12.18;;;8.20;;
81807;SDS011;71241;13.676;100.700;2023-08-20T03:15:05;12.88;;;8.35;;
81807;SDS011;71241;13.676;100.700;2023-08-20T03:17:36;14.38;;;12.95;;
81807;SDS011;71241;13.676;100.700;2023-08-20T03:20:08;13.35;;;11.73;;
81807;SDS011;71241;13.676;100.700;2023-08-20T03:22:39;9.27;;;8.32;;
81807;SDS011;71241;13.676;100.700;2023-08-20T03:25:09;12.82;;;8.52;;
81807;SDS011;71241;13.676;100.700;2023-08-20T03:27:40;13.45;;;9.50;;
81807;SDS011;71241;13.676;100.700;2023-08-20T03:30:12;12.35;;;8.55;;
81807;SDS011;71241;13.676;100.700;2023-08-20T03:32:43;12.35;;;10.38;;
81807;SDS011;71241;13.676;100.700;2023-08-20T03:35:14;8.52;;;7.53;;
81807;SDS011;71241;13.676;100.700;2023-08-20T03:37:45;12.60;;;9.10;;
81807;SDS011;71241;13.676;100.700;2023-08-20T03:40:15;10.63;;;7.95;;
81807;SDS011;71241;13.676;100.700;2023-08-20T03:42:47;10.65;;;9.30;;
81807;SDS011;71241;13.676;100.700;2023-08-20T03:45:19;13.07;;;8.85;;
81807;SDS011;71241;13.676;100.700;2023-08-20T03:48:05;17.67;;;8.43;;
81807;SDS011;71241;13.676;100.700;2023-08-20T03:50:35;12.32;;;8.63;;
81807;SDS011;71241;13.676;100.700;2023-08-20T03:53:06;11.07;;;8.23;;
81807;SDS011;71241;13.676;100.700;2023-08-20T03:55:37;13.77;;;9.15;;
81807;SDS011;71241;13.676;100.700;2023-08-20T03:58:08;15.10;;;9.20;;
81807;SDS011;71241;13.676;100.700;2023-08-20T04:00:40;11.70;;;8.93;;
81807;SDS011;71241;13.676;100.700;2023-08-20T04:03:11;11.77;;;8.27;;
81807;SDS011;71241;13.676;100.700;2023-08-20T04:05:42;13.02;;;9.57;;
81807;SDS011;71241;13.676;100.700;2023-08-20T04:08:14;13.60;;;10.35;;
81807;SDS011;71241;13.676;100.700;2023-08-20T04:10:45;9.90;;;8.90;;
81807;SDS011;71241;13.676;100.700;2023-08-20T04:13:15;10.52;;;8.70;;
81807;SDS011;71241;13.676;100.700;2023-08-20T04:15:48;11.95;;;8.25;;
81807;SDS011;71241;13.676;100.700;2023-08-20T04:22:04;11.82;;;8.07;;
81807;SDS011;71241;13.676;100.700;2023-08-20T04:24:34;12.52;;;11.10;;
81807;SDS011;71241;13.676;100.700;2023-08-20T04:27:05;11.02;;;9.85;;
81807;SDS011;71241;13.676;100.700;2023-08-20T04:29:35;11.05;;;7.47;;
81807;SDS011;71241;13.676;100.700;2023-08-20T04:32:08;12.55;;;8.10;;
81807;SDS011;71241;13.676;100.700;2023-08-20T04:34:38;10.15;;;8.48;;
81807;SDS011;71241;13.676;100.700;2023-08-20T04:37:09;13.07;;;8.98;;
81807;SDS011;71241;13.676;100.700;2023-08-20T04:39:40;11.27;;;8.27;;
81807;SDS011;71241;13.676;100.700;2023-08-20T04:42:10;11.13;;;8.73;;
81807;SDS011;71241;13.676;100.700;2023-08-20T04:44:41;12.00;;;7.90;;
81807;SDS011;71241;13.676;100.700;2023-08-20T04:47:13;10.77;;;9.27;;
81807;SDS011;71241;13.676;100.700;2023-08-20T04:49:44;12.70;;;9.00;;
81807;SDS011;71241;13.676;100.700;2023-08-20T04:52:14;13.18;;;8.55;;
81807;SDS011;71241;13.676;100.700;2023-08-20T04:54:45;12.20;;;8.63;;
81807;SDS011;71241;13.676;100.700;2023-08-20T04:57:15;12.25;;;8.27;;
81807;SDS011;71241;13.676;100.700;2023-08-20T04:59:46;11.68;;;8.63;;
81807;SDS011;71241;13.676;100.700;2023-08-20T05:02:18;11.35;;;8.27;;
81807;SDS011;71241;13.676;100.700;2023-08-20T05:04:49;11.80;;;7.95;;
81807;SDS011;71241;13.676;100.700;2023-08-20T05:07:19;16.42;;;8.88;;
81807;SDS011;71241;13.676;100.700;2023-08-20T05:09:50;12.82;;;7.20;;
81807;SDS011;71241;13.676;100.700;2023-08-20T05:12:20;12.95;;;8.77;;
81807;SDS011;71241;13.676;100.700;2023-08-20T05:14:51;11.15;;;7.75;;
81807;SDS011;71241;13.676;100.700;2023-08-20T05:17:23;10.93;;;9.02;;
81807;SDS011;71241;13.676;100.700;2023-08-20T05:19:54;10.23;;;8.20;;
81807;SDS011;71241;13.676;100.700;2023-08-20T05:22:25;10.43;;;7.35;;
81807;SDS011;71241;13.676;100.700;2023-08-20T05:24:56;9.77;;;8.77;;
81807;SDS011;71241;13.676;100.700;2023-08-20T05:27:27;10.98;;;8.30;;
81807;SDS011;71241;13.676;100.700;2023-08-20T05:29:57;9.27;;;8.23;;
81807;SDS011;71241;13.676;100.700;2023-08-20T05:32:30;11.35;;;9.40;;
81807;SDS011;71241;13.676;100.700;2023-08-20T05:35:01;12.48;;;9.85;;
81807;SDS011;71241;13.676;100.700;2023-08-20T05:37:33;12.52;;;9.57;;
81807;SDS011;71241;13.676;100.700;2023-08-20T05:40:04;12.38;;;8.82;;
81807;SDS011;71241;13.676;100.700;2023-08-20T05:42:37;12.40;;;9.27;;
81807;SDS011;71241;13.676;100.700;2023-08-20T05:45:08;11.00;;;9.07;;
81807;SDS011;71241;13.676;100.700;2023-08-20T05:47:41;12.30;;;9.30;;
81807;SDS011;71241;13.676;100.700;2023-08-20T05:50:12;14.70;;;9.45;;
81807;SDS011;71241;13.676;100.700;2023-08-20T05:52:42;17.35;;;9.35;;
81807;SDS011;71241;13.676;100.700;2023-08-20T05:55:13;12.10;;;9.43;;
81807;SDS011;71241;13.676;100.700;2023-08-20T05:57:46;10.70;;;8.13;;
81807;SDS011;71241;13.676;100.700;2023-08-20T06:00:16;10.23;;;8.32;;
81807;SDS011;71241;13.676;100.700;2023-08-20T06:02:48;13.75;;;9.57;;
81807;SDS011;71241;13.676;100.700;2023-08-20T06:05:19;11.10;;;8.50;;
81807;SDS011;71241;13.676;100.700;2023-08-20T06:07:50;11.65;;;8.85;;
81807;SDS011;71241;13.676;100.700;2023-08-20T06:10:20;11.70;;;8.40;;
81807;SDS011;71241;13.676;100.700;2023-08-20T06:12:50;12.65;;;9.20;;
81807;SDS011;71241;13.676;100.700;2023-08-20T06:15:21;11.32;;;10.00;;
81807;SDS011;71241;13.676;100.700;2023-08-20T06:17:53;10.35;;;8.98;;
81807;SDS011;71241;13.676;100.700;2023-08-20T06:20:24;12.10;;;9.30;;
81807;SDS011;71241;13.676;100.700;2023-08-20T06:22:55;9.38;;;7.82;;
81807;SDS011;71241;13.676;100.700;2023-08-20T06:28:37;12.30;;;8.95;;
81807;SDS011;71241;13.676;100.700;2023-08-20T06:31:08;14.05;;;8.73;;
81807;SDS011;71241;13.676;100.700;2023-08-20T06:33:40;12.30;;;9.43;;
81807;SDS011;71241;13.676;100.700;2023-08-20T06:36:11;16.25;;;10.15;;
81807;SDS011;71241;13.676;100.700;2023-08-20T06:38:41;13.48;;;9.68;;
81807;SDS011;71241;13.676;100.700;2023-08-20T06:41:12;12.73;;;8.52;;
81807;SDS011;71241;13.676;100.700;2023-08-20T06:43:42;12.48;;;8.70;;
81807;SDS011;71241;13.676;100.700;2023-08-20T06:46:13;12.55;;;9.48;;
81807;SDS011;71241;13.676;100.700;2023-08-20T06:48:45;12.32;;;8.60;;
81807;SDS011;71241;13.676;100.700;2023-08-20T06:53:48;10.35;;;8.05;;
81807;SDS011;71241;13.676;100.700;2023-08-20T06:56:26;14.63;;;8.55;;
81807;SDS011;71241;13.676;100.700;2023-08-20T06:58:57;11.95;;;7.97;;
81807;SDS011;71241;13.676;100.700;2023-08-20T07:01:28;11.30;;;8.60;;
81807;SDS011;71241;13.676;100.700;2023-08-20T07:04:00;11.43;;;8.35;;
81807;SDS011;71241;13.676;100.700;2023-08-20T07:06:31;13.90;;;8.77;;
81807;SDS011;71241;13.676;100.700;2023-08-20T07:09:01;11.52;;;8.25;;
81807;SDS011;71241;13.676;100.700;2023-08-20T07:11:32;10.35;;;8.57;;
81807;SDS011;71241;13.676;100.700;2023-08-20T07:14:03;13.13;;;8.35;;
81807;SDS011;71241;13.676;100.700;2023-08-20T07:16:33;11.57;;;7.93;;
81807;SDS011;71241;13.676;100.700;2023-08-20T07:19:06;9.43;;;8.23;;
81807;SDS011;71241;13.676;100.700;2023-08-20T07:21:37;12.77;;;8.80;;
81807;SDS011;71241;13.676;100.700;2023-08-20T07:24:07;11.32;;;8.30;;
81807;SDS011;71241;13.676;100.700;2023-08-20T07:26:38;15.15;;;9.23;;
81807;SDS011;71241;13.676;100.700;2023-08-20T07:29:09;10.95;;;8.23;;
81807;SDS011;71241;13.676;100.700;2023-08-20T07:31:39;10.60;;;7.63;;
81807;SDS011;71241;13.676;100.700;2023-08-20T07:34:12;13.68;;;8.18;;
81807;SDS011;71241;13.676;100.700;2023-08-20T07:36:43;12.80;;;8.07;;
81807;SDS011;71241;13.676;100.700;2023-08-20T07:39:13;12.48;;;7.90;;
81807;SDS011;71241;13.676;100.700;2023-08-20T07:41:45;14.52;;;7.45;;
81807;SDS011;71241;13.676;100.700;2023-08-20T07:44:16;9.23;;;7.18;;
81807;SDS011;71241;13.676;100.700;2023-08-20T07:46:46;10.25;;;8.18;;
81807;SDS011;71241;13.676;100.700;2023-08-20T07:49:18;8.82;;;7.93;;
81807;SDS011;71241;13.676;100.700;2023-08-20T07:51:49;10.77;;;8.73;;
81807;SDS011;71241;13.676;100.700;2023-08-20T07:54:21;14.90;;;8.15;;
81807;SDS011;71241;13.676;100.700;2023-08-20T07:56:52;8.73;;;7.15;;
81807;SDS011;71241;13.676;100.700;2023-08-20T07:59:22;8.98;;;8.00;;
81807;SDS011;71241;13.676;100.700;2023-08-20T08:01:53;10.65;;;7.97;;
81807;SDS011;71241;13.676;100.700;2023-08-20T08:04:25;9.50;;;8.15;;
81807;SDS011;71241;13.676;100.700;2023-08-20T08:06:56;14.88;;;8.20;;
81807;SDS011;71241;13.676;100.700;2023-08-20T08:09:27;12.05;;;8.35;;
81807;SDS011;71241;13.676;100.700;2023-08-20T08:11:58;12.05;;;8.18;;
81807;SDS011;71241;13.676;100.700;2023-08-20T08:14:29;9.82;;;7.28;;
81807;SDS011;71241;13.676;100.700;2023-08-20T08:17:00;12.32;;;8.25;;
81807;SDS011;71241;13.676;100.700;2023-08-20T08:19:32;14.30;;;8.10;;
81807;SDS011;71241;13.676;100.700;2023-08-20T08:22:03;10.98;;;6.90;;
81807;SDS011;71241;13.676;100.700;2023-08-20T08:24:34;9.73;;;7.78;;
81807;SDS011;71241;13.676;100.700;2023-08-20T08:27:04;14.05;;;7.95;;
81807;SDS011;71241;13.676;100.700;2023-08-20T08:29:35;10.88;;;7.20;;
81807;SDS011;71241;13.676;100.700;2023-08-20T08:32:05;9.85;;;7.97;;
81807;SDS011;71241;13.676;100.700;2023-08-20T08:34:38;10.23;;;7.95;;
81807;SDS011;71241;13.676;100.700;2023-08-20T08:37:08;10.52;;;7.90;;
81807;SDS011;71241;13.676;100.700;2023-08-20T08:39:39;14.88;;;7.53;;
81807;SDS011;71241;13.676;100.700;2023-08-20T08:42:10;11.25;;;7.35;;
81807;SDS011;71241;13.676;100.700;2023-08-20T08:44:41;11.77;;;8.27;;
81807;SDS011;71241;13.676;100.700;2023-08-20T08:47:12;10.95;;;7.28;;
81807;SDS011;71241;13.676;100.700;2023-08-20T08:49:44;9.93;;;8.82;;
81807;SDS011;71241;13.676;100.700;2023-08-20T08:52:16;15.00;;;7.28;;
81807;SDS011;71241;13.676;100.700;2023-08-20T08:57:22;12.60;;;7.65;;
81807;SDS011;71241;13.676;100.700;2023-08-20T08:59:53;13.55;;;7.63;;
81807;SDS011;71241;13.676;100.700;2023-08-20T09:02:23;11.65;;;7.57;;
81807;SDS011;71241;13.676;100.700;2023-08-20T09:04:56;8.27;;;7.15;;
81807;SDS011;71241;13.676;100.700;2023-08-20T09:07:27;12.60;;;7.57;;
81807;SDS011;71241;13.676;100.700;2023-08-20T09:10:00;10.52;;;7.05;;
81807;SDS011;71241;13.676;100.700;2023-08-20T09:12:33;13.93;;;7.03;;
81807;SDS011;71241;13.676;100.700;2023-08-20T09:15:09;12.90;;;7.80;;
81807;SDS011;71241;13.676;100.700;2023-08-20T09:17:40;12.00;;;7.85;;
81807;SDS011;71241;13.676;100.700;2023-08-20T09:20:13;9.85;;;7.53;;
81807;SDS011;71241;13.676;100.700;2023-08-20T09:22:48;11.20;;;9.15;;
81807;SDS011;71241;13.676;100.700;2023-08-20T09:25:19;14.93;;;8.05;;
81807;SDS011;71241;13.676;100.700;2023-08-20T09:27:49;10.48;;;7.97;;
81807;SDS011;71241;13.676;100.700;2023-08-20T09:30:23;13.05;;;7.65;;
81807;SDS011;71241;13.676;100.700;2023-08-20T09:33:03;9.40;;;7.00;;
81807;SDS011;71241;13.676;100.700;2023-08-20T09:35:36;13.38;;;9.90;;
81807;SDS011;71241;13.676;100.700;2023-08-20T09:38:06;14.95;;;8.07;;
81807;SDS011;71241;13.676;100.700;2023-08-20T09:40:38;11.93;;;8.57;;
81807;SDS011;71241;13.676;100.700;2023-08-20T09:43:09;15.10;;;12.38;;
81807;SDS011;71241;13.676;100.700;2023-08-20T09:45:41;13.50;;;7.57;;
81807;SDS011;71241;13.676;100.700;2023-08-20T09:48:13;11.70;;;7.32;;
81807;SDS011;71241;13.676;100.700;2023-08-20T09:50:51;10.65;;;7.50;;
81807;SDS011;71241;13.676;100.700;2023-08-20T09:53:24;10.32;;;6.63;;
81807;SDS011;71241;13.676;100.700;2023-08-20T09:56:00;11.63;;;7.32;;
81807;SDS011;71241;13.676;100.700;2023-08-20T09:58:39;11.73;;;8.43;;
81807;SDS011;71241;13.676;100.700;2023-08-20T10:01:10;10.18;;;7.88;;
81807;SDS011;71241;13.676;100.700;2023-08-20T10:03:40;13.88;;;6.72;;
81807;SDS011;71241;13.676;100.700;2023-08-20T10:06:13;10.90;;;6.32;;
81807;SDS011;71241;13.676;100.700;2023-08-20T10:08:44;12.27;;;6.80;;
81807;SDS011;71241;13.676;100.700;2023-08-20T10:11:15;9.13;;;5.07;;
81807;SDS011;71241;13.676;100.700;2023-08-20T10:13:46;9.35;;;5.25;;
81807;SDS011;71241;13.676;100.700;2023-08-20T10:16:17;11.00;;;6.45;;
81807;SDS011;71241;13.676;100.700;2023-08-20T10:18:50;9.32;;;5.82;;
81807;SDS011;71241;13.676;100.700;2023-08-20T10:21:26;10.30;;;6.28;;
81807;SDS011;71241;13.676;100.700;2023-08-20T10:23:57;9.05;;;6.18;;
81807;SDS011;71241;13.676;100.700;2023-08-20T10:26:33;9.32;;;6.00;;
81807;SDS011;71241;13.676;100.700;2023-08-20T10:32:06;10.85;;;5.65;;
81807;SDS011;71241;13.676;100.700;2023-08-20T10:34:38;9.40;;;4.47;;
81807;SDS011;71241;13.676;100.700;2023-08-20T10:37:14;11.07;;;5.10;;
81807;SDS011;71241;13.676;100.700;2023-08-20T10:39:45;9.57;;;5.03;;
81807;SDS011;71241;13.676;100.700;2023-08-20T10:42:28;10.45;;;4.78;;
81807;SDS011;71241;13.676;100.700;2023-08-20T10:44:59;9.57;;;5.30;;
81807;SDS011;71241;13.676;100.700;2023-08-20T10:47:42;10.60;;;5.65;;
81807;SDS011;71241;13.676;100.700;2023-08-20T10:50:15;11.07;;;5.32;;
81807;SDS011;71241;13.676;100.700;2023-08-20T10:52:50;10.77;;;5.03;;
81807;SDS011;71241;13.676;100.700;2023-08-20T10:55:25;9.88;;;4.93;;
81807;SDS011;71241;13.676;100.700;2023-08-20T10:57:57;9.88;;;4.72;;
81807;SDS011;71241;13.676;100.700;2023-08-20T11:00:31;8.63;;;4.57;;
81807;SDS011;71241;13.676;100.700;2023-08-20T11:03:02;10.90;;;4.63;;
81807;SDS011;71241;13.676;100.700;2023-08-20T11:05:33;11.15;;;4.50;;
81807;SDS011;71241;13.676;100.700;2023-08-20T11:08:06;8.68;;;4.60;;
81807;SDS011;71241;13.676;100.700;2023-08-20T11:10:37;10.30;;;5.25;;
81807;SDS011;71241;13.676;100.700;2023-08-20T11:13:07;8.80;;;5.07;;
81807;SDS011;71241;13.676;100.700;2023-08-20T11:15:38;6.25;;;4.50;;
81807;SDS011;71241;13.676;100.700;2023-08-20T11:18:08;9.13;;;5.80;;
81807;SDS011;71241;13.676;100.700;2023-08-20T11:20:40;9.63;;;5.50;;
81807;SDS011;71241;13.676;100.700;2023-08-20T11:23:12;9.40;;;6.32;;
81807;SDS011;71241;13.676;100.700;2023-08-20T11:25:44;12.23;;;6.30;;
81807;SDS011;71241;13.676;100.700;2023-08-20T11:28:15;8.77;;;6.07;;
81807;SDS011;71241;13.676;100.700;2023-08-20T11:30:45;13.40;;;6.78;;
81807;SDS011;71241;13.676;100.700;2023-08-20T11:33:16;9.93;;;7.07;;
81807;SDS011;71241;13.676;100.700;2023-08-20T11:35:47;10.23;;;5.90;;
81807;SDS011;71241;13.676;100.700;2023-08-20T11:38:19;8.70;;;5.63;;
81807;SDS011;71241;13.676;100.700;2023-08-20T11:40:51;10.00;;;5.55;;
81807;SDS011;71241;13.676;100.700;2023-08-20T11:43:22;7.60;;;5.45;;
81807;SDS011;71241;13.676;100.700;2023-08-20T11:45:52;9.77;;;5.18;;
81807;SDS011;71241;13.676;100.700;2023-08-20T11:48:23;11.00;;;6.20;;
81807;SDS011;71241;13.676;100.700;2023-08-20T11:50:56;13.88;;;5.57;;
81807;SDS011;71241;13.676;100.700;2023-08-20T11:53:29;8.65;;;4.95;;
81807;SDS011;71241;13.676;100.700;2023-08-20T11:56:00;11.15;;;4.60;;
81807;SDS011;71241;13.676;100.700;2023-08-20T11:58:31;10.73;;;6.28;;
81807;SDS011;71241;13.676;100.700;2023-08-20T12:01:06;9.13;;;5.72;;
81807;SDS011;71241;13.676;100.700;2023-08-20T12:03:38;8.25;;;4.65;;
81807;SDS011;71241;13.676;100.700;2023-08-20T12:06:18;11.93;;;5.35;;
81807;SDS011;71241;13.676;100.700;2023-08-20T12:08:51;9.73;;;5.28;;
81807;SDS011;71241;13.676;100.700;2023-08-20T12:11:23;9.35;;;4.97;;
81807;SDS011;71241;13.676;100.700;2023-08-20T12:13:55;9.80;;;6.15;;
81807;SDS011;71241;13.676;100.700;2023-08-20T12:16:26;10.13;;;5.28;;
81807;SDS011;71241;13.676;100.700;2023-08-20T12:18:56;9.75;;;5.15;;
81807;SDS011;71241;13.676;100.700;2023-08-20T12:21:27;12.18;;;5.47;;
81807;SDS011;71241;13.676;100.700;2023-08-20T12:23:59;10.63;;;5.68;;
81807;SDS011;71241;13.676;100.700;2023-08-20T12:26:30;13.05;;;6.10;;
81807;SDS011;71241;13.676;100.700;2023-08-20T12:29:02;11.20;;;5.95;;
81807;SDS011;71241;13.676;100.700;2023-08-20T12:31:33;10.88;;;5.63;;
81807;SDS011;71241;13.676;100.700;2023-08-20T12:34:03;10.07;;;4.93;;
81807;SDS011;71241;13.676;100.700;2023-08-20T12:36:34;11.35;;;6.80;;
81807;SDS011;71241;13.676;100.700;2023-08-20T12:39:07;10.13;;;6.60;;
81807;SDS011;71241;13.676;100.700;2023-08-20T12:41:37;12.63;;;5.75;;
81807;SDS011;71241;13.676;100.700;2023-08-20T12:44:08;9.77;;;4.90;;
81807;SDS011;71241;13.676;100.700;2023-08-20T12:49:14;11.52;;;5.65;;
81807;SDS011;71241;13.676;100.700;2023-08-20T12:51:44;13.05;;;5.88;;
81807;SDS011;71241;13.676;100.700;2023-08-20T12:54:17;9.80;;;5.00;;
81807;SDS011;71241;13.676;100.700;2023-08-20T12:56:47;6.60;;;5.25;;
81807;SDS011;71241;13.676;100.700;2023-08-20T12:59:18;11.20;;;5.05;;
81807;SDS011;71241;13.676;100.700;2023-08-20T13:01:51;10.98;;;4.93;;
81807;SDS011;71241;13.676;100.700;2023-08-20T13:04:22;7.93;;;5.28;;
81807;SDS011;71241;13.676;100.700;2023-08-20T13:06:54;8.80;;;5.43;;
81807;SDS011;71241;13.676;100.700;2023-08-20T13:09:27;8.00;;;4.40;;
81807;SDS011;71241;13.676;100.700;2023-08-20T13:11:58;7.30;;;5.28;;
81807;SDS011;71241;13.676;100.700;2023-08-20T13:14:33;7.00;;;4.40;;
81807;SDS011;71241;13.676;100.700;2023-08-20T13:17:04;11.55;;;5.32;;
81807;SDS011;71241;13.676;100.700;2023-08-20T13:19:35;3.95;;;2.53;;
81807;SDS011;71241;13.676;100.700;2023-08-20T13:22:06;4.22;;;2.78;;
81807;SDS011;71241;13.676;100.700;2023-08-20T13:24:39;4.32;;;2.22;;
81807;SDS011;71241;13.676;100.700;2023-08-20T13:27:10;5.72;;;3.15;;
81807;SDS011;71241;13.676;100.700;2023-08-20T13:29:41;9.43;;;4.68;;
81807;SDS011;71241;13.676;100.700;2023-08-20T13:32:11;8.38;;;4.78;;
81807;SDS011;71241;13.676;100.700;2023-08-20T13:34:42;9.98;;;5.10;;
81807;SDS011;71241;13.676;100.700;2023-08-20T13:37:13;7.85;;;4.90;;
81807;SDS011;71241;13.676;100.700;2023-08-20T13:39:45;9.85;;;5.53;;
81807;SDS011;71241;13.676;100.700;2023-08-20T13:42:16;10.88;;;6.07;;
81807;SDS011;71241;13.676;100.700;2023-08-20T13:44:49;11.82;;;5.75;;
81807;SDS011;71241;13.676;100.700;2023-08-20T13:47:19;6.38;;;4.80;;
81807;SDS011;71241;13.676;100.700;2023-08-20T13:49:51;6.13;;;4.45;;
81807;SDS011;71241;13.676;100.700;2023-08-20T13:52:22;9.40;;;4.72;;
81807;SDS011;71241;13.676;100.700;2023-08-20T13:54:54;9.35;;;5.20;;
81807;SDS011;71241;13.676;100.700;2023-08-20T13:57:24;8.43;;;5.63;;
81807;SDS011;71241;13.676;100.700;2023-08-20T13:59:56;7.32;;;4.10;;
81807;SDS011;71241;13.676;100.700;2023-08-20T14:02:26;4.32;;;2.80;;
81807;SDS011;71241;13.676;100.700;2023-08-20T14:07:43;3.45;;;1.65;;
81807;SDS011;71241;13.676;100.700;2023-08-20T14:10:15;3.28;;;1.90;;
81807;SDS011;71241;13.676;100.700;2023-08-20T14:12:46;5.15;;;1.77;;
81807;SDS011;71241;13.676;100.700;2023-08-20T14:15:19;5.97;;;3.08;;
81807;SDS011;71241;13.676;100.700;2023-08-20T14:17:50;5.10;;;3.75;;
81807;SDS011;71241;13.676;100.700;2023-08-20T14:20:23;5.07;;;2.92;;
81807;SDS011;71241;13.676;100.700;2023-08-20T14:22:54;2.72;;;2.20;;
81807;SDS011;71241;13.676;100.700;2023-08-20T14:25:26;3.67;;;2.63;;
81807;SDS011;71241;13.676;100.700;2023-08-20T14:27:57;3.05;;;1.35;;
81807;SDS011;71241;13.676;100.700;2023-08-20T14:30:28;2.15;;;1.05;;
81807;SDS011;71241;13.676;100.700;2023-08-20T14:32:58;3.08;;;1.10;;
81807;SDS011;71241;13.676;100.700;2023-08-20T14:35:29;2.25;;;1.30;;
81807;SDS011;71241;13.676;100.700;2023-08-20T14:38:03;5.00;;;1.23;;
81807;SDS011;71241;13.676;100.700;2023-08-20T14:40:39;2.40;;;1.17;;
81807;SDS011;71241;13.676;100.700;2023-08-20T14:43:09;2.88;;;1.27;;
81807;SDS011;71241;13.676;100.700;2023-08-20T14:45:40;2.22;;;1.02;;
81807;SDS011;71241;13.676;100.700;2023-08-20T14:48:11;1.48;;;1.00;;
81807;SDS011;71241;13.676;100.700;2023-08-20T14:50:41;2.00;;;1.20;;
81807;SDS011;71241;13.676;100.700;2023-08-20T14:53:13;4.07;;;1.55;;
81807;SDS011;71241;13.676;100.700;2023-08-20T14:55:48;2.22;;;1.20;;
81807;SDS011;71241;13.676;100.700;2023-08-20T14:58:24;12.45;;;1.70;;
81807;SDS011;71241;13.676;100.700;2023-08-20T15:00:59;2.55;;;1.33;;